Time,TemperatureF,DewpointF,PressureIn,WindDirection,WindDirectionDegrees,WindSpeedMPH,WindSpeedGustMPH,Humidity,HourlyPrecipIn,Conditions,Clouds,dailyrainin,SolarRadiationWatts/m^2,SoftwareType,DateUTC
2013-07-05 00:02:00,88.0,54.0,-100.00,SW,222,6.0,18.0,31,0.00,,,0.00,0.000000,,2013-07-05 07:02:00,
2013-07-05 00:12:00,88.0,54.0,-100.00,SW,222,6.0,18.0,31,0.00,,,0.00,0.000000,,2013-07-05 07:12:00,
2013-07-05 00:43:00,86.0,56.0,-100.00,SW,224,11.0,21.0,36,0.00,,,0.00,0.000000,,2013-07-05 07:43:00,
2013-07-05 00:53:00,86.0,56.0,-100.00,SW,224,11.0,21.0,36,0.00,,,0.00,0.000000,,2013-07-05 07:53:00,
2013-07-05 01:02:00,86.0,56.0,-100.00,SW,224,11.0,21.0,36,0.00,,,0.00,0.000000,,2013-07-05 08:02:00,
2013-07-05 01:12:00,86.0,56.0,-100.00,SW,224,11.0,21.0,36,0.00,,,0.00,0.000000,,2013-07-05 08:12:00,
2013-07-05 01:44:00,85.0,56.0,-100.00,SSW,209,8.0,22.0,37,0.00,,,-99.99,0.000000,,2013-07-05 08:44:00,
2013-07-05 01:56:00,85.0,56.0,-100.00,SSW,209,8.0,22.0,37,0.00,,,-99.99,0.000000,,2013-07-05 08:56:00,
2013-07-05 02:04:00,85.0,56.0,-100.00,SSW,209,8.0,22.0,37,0.00,,,-99.99,0.000000,,2013-07-05 09:04:00,
2013-07-05 02:13:00,85.0,56.0,-100.00,SSW,209,8.0,22.0,37,0.00,,,-99.99,0.000000,,2013-07-05 09:13:00,
2013-07-05 02:55:00,84.0,54.0,-100.00,SSW,207,7.0,15.0,36,0.00,,,-99.99,0.000000,,2013-07-05 09:55:00,
2013-07-05 03:04:00,84.0,54.0,-100.00,SSW,207,7.0,15.0,36,0.00,,,-99.99,0.000000,,2013-07-05 10:04:00,
2013-07-05 03:13:00,84.0,54.0,-100.00,SSW,207,7.0,15.0,36,0.00,,,-99.99,0.000000,,2013-07-05 10:13:00,
2013-07-05 03:47:00,82.0,52.0,-100.00,SW,228,5.0,13.0,35,0.00,,,0.00,0.000000,,2013-07-05 10:47:00,
2013-07-05 03:57:00,82.0,52.0,-100.00,SW,228,5.0,13.0,35,0.00,,,0.00,0.000000,,2013-07-05 10:57:00,
2013-07-05 04:04:00,82.0,52.0,-100.00,SW,228,5.0,13.0,35,0.00,,,0.00,0.000000,,2013-07-05 11:04:00,
2013-07-05 04:49:00,78.0,55.0,-100.00,SSW,201,1.0,5.0,45,0.00,,,0.00,0.000000,,2013-07-05 11:49:00,
2013-07-05 04:59:00,78.0,55.0,-100.00,SSW,201,1.0,5.0,45,0.00,,,0.00,0.000000,,2013-07-05 11:59:00,
2013-07-05 05:04:00,78.0,55.0,-100.00,SSW,201,1.0,5.0,45,0.00,,,0.00,0.000000,,2013-07-05 12:04:00,
2013-07-05 05:12:00,78.0,55.0,-100.00,SSW,201,1.0,5.0,45,0.00,,,0.00,0.000000,,2013-07-05 12:12:00,
2013-07-05 05:50:00,76.0,51.0,-100.00,SSW,201,1.0,5.0,42,0.00,,,0.00,0.000000,,2013-07-05 12:50:00,
2013-07-05 06:04:00,76.0,51.0,-100.00,SSW,201,1.0,5.0,42,0.00,,,0.00,0.000000,,2013-07-05 13:04:00,
2013-07-05 06:12:00,76.0,51.0,-100.00,SSW,201,1.0,5.0,42,0.00,,,0.00,0.000000,,2013-07-05 13:12:00,
2013-07-05 06:49:00,75.0,52.0,-100.00,SSE,165,1.0,5.0,44,0.00,,,0.00,7.000000,,2013-07-05 13:49:00,
2013-07-05 07:04:00,75.0,52.0,-100.00,SSE,165,1.0,5.0,44,0.00,,,0.00,7.000000,,2013-07-05 14:04:00,
2013-07-05 07:12:00,75.0,52.0,-100.00,SSE,165,1.0,5.0,44,0.00,,,0.00,7.000000,,2013-07-05 14:12:00,
2013-07-05 07:47:00,80.0,56.0,-100.00,ESE,114,0.0,5.0,44,0.00,,,0.00,116.000000,,2013-07-05 14:47:00,
2013-07-05 07:56:00,80.0,56.0,-100.00,ESE,114,0.0,5.0,44,0.00,,,0.00,116.000000,,2013-07-05 14:56:00,
2013-07-05 08:13:00,80.0,56.0,-100.00,ESE,114,0.0,5.0,44,0.00,,,0.00,116.000000,,2013-07-05 15:13:00,
2013-07-05 08:43:00,85.0,57.0,-100.00,NNE,23,2.0,5.0,38,0.00,,,0.00,309.000000,,2013-07-05 15:43:00,
2013-07-05 08:53:00,85.0,57.0,-100.00,NNE,23,2.0,5.0,38,0.00,,,0.00,309.000000,,2013-07-05 15:53:00,
2013-07-05 09:44:00,90.0,58.0,-100.00,NNE,21,1.0,7.0,34,0.00,,,0.00,503.000000,,2013-07-05 16:44:00,
2013-07-05 09:53:00,90.0,58.0,-100.00,NNE,21,1.0,7.0,34,0.00,,,0.00,503.000000,,2013-07-05 16:53:00,
2013-07-05 10:01:00,90.0,58.0,-100.00,NNE,21,1.0,7.0,34,0.00,,,0.00,503.000000,,2013-07-05 17:01:00,
2013-07-05 10:12:00,90.0,58.0,-100.00,NNE,21,1.0,7.0,34,0.00,,,0.00,503.000000,,2013-07-05 17:12:00,
2013-07-05 10:43:00,93.0,54.0,-100.00,West,277,4.0,15.0,27,0.00,,,0.00,663.000000,,2013-07-05 17:43:00,
2013-07-05 10:53:00,93.0,54.0,-100.00,West,277,4.0,15.0,27,0.00,,,0.00,663.000000,,2013-07-05 17:53:00,
2013-07-05 11:01:00,93.0,54.0,-100.00,West,277,4.0,15.0,27,0.00,,,0.00,663.000000,,2013-07-05 18:01:00,
2013-07-05 11:11:00,93.0,54.0,-100.00,West,277,4.0,15.0,27,0.00,,,0.00,663.000000,,2013-07-05 18:11:00,
2013-07-05 11:43:00,97.0,54.0,-100.00,SSW,209,7.0,18.0,24,0.00,,,0.00,810.000000,,2013-07-05 18:43:00,
2013-07-05 11:53:00,97.0,54.0,-100.00,SSW,209,7.0,18.0,24,0.00,,,0.00,810.000000,,2013-07-05 18:53:00,
2013-07-05 12:01:00,97.0,54.0,-100.00,SSW,209,7.0,18.0,24,0.00,,,0.00,810.000000,,2013-07-05 19:01:00,
2013-07-05 12:12:00,97.0,54.0,-100.00,SSW,209,7.0,18.0,24,0.00,,,0.00,810.000000,,2013-07-05 19:12:00,
2013-07-05 12:43:00,97.0,55.0,-100.00,WSW,238,9.0,19.0,25,0.00,,,0.00,883.000000,,2013-07-05 19:43:00,
2013-07-05 12:53:00,97.0,55.0,-100.00,WSW,238,9.0,19.0,25,0.00,,,0.00,883.000000,,2013-07-05 19:53:00,
2013-07-05 13:01:00,97.0,55.0,-100.00,WSW,238,9.0,19.0,25,0.00,,,0.00,883.000000,,2013-07-05 20:01:00,
2013-07-05 13:11:00,97.0,55.0,-100.00,WSW,238,9.0,19.0,25,0.00,,,0.00,883.000000,,2013-07-05 20:11:00,
2013-07-05 13:43:00,99.0,53.0,-100.00,SSE,155,12.0,29.0,22,0.00,,,0.00,979.000000,,2013-07-05 20:43:00,
2013-07-05 13:53:00,99.0,53.0,-100.00,SSE,155,12.0,29.0,22,0.00,,,0.00,979.000000,,2013-07-05 20:53:00,
2013-07-05 14:01:00,99.0,53.0,-100.00,SSE,155,12.0,29.0,22,0.00,,,0.00,979.000000,,2013-07-05 21:01:00,
2013-07-05 14:11:00,99.0,53.0,-100.00,SSE,155,12.0,29.0,22,0.00,,,0.00,979.000000,,2013-07-05 21:11:00,
2013-07-05 14:43:00,98.0,53.0,-100.00,WSW,251,4.0,28.0,22,0.00,,,0.00,703.000000,,2013-07-05 21:43:00,
2013-07-05 14:53:00,98.0,53.0,-100.00,WSW,251,4.0,28.0,22,0.00,,,0.00,703.000000,,2013-07-05 21:53:00,
2013-07-05 15:01:00,98.0,53.0,-100.00,WSW,251,4.0,28.0,22,0.00,,,0.00,703.000000,,2013-07-05 22:01:00,
2013-07-05 15:11:00,98.0,53.0,-100.00,WSW,251,4.0,28.0,22,0.00,,,0.00,703.000000,,2013-07-05 22:11:00,
2013-07-05 15:43:00,97.0,51.0,-100.00,NW,305,6.0,22.0,21,0.00,,,0.00,467.000000,,2013-07-05 22:43:00,
2013-07-05 15:53:00,97.0,51.0,-100.00,NW,305,6.0,22.0,21,0.00,,,0.00,467.000000,,2013-07-05 22:53:00,
2013-07-05 16:02:00,97.0,51.0,-100.00,NW,305,6.0,22.0,21,0.00,,,0.00,467.000000,,2013-07-05 23:02:00,
2013-07-05 16:11:00,97.0,51.0,-100.00,NW,305,6.0,22.0,21,0.00,,,0.00,467.000000,,2013-07-05 23:11:00,
2013-07-05 16:43:00,98.0,50.0,-100.00,WNW,284,5.0,21.0,20,0.00,,,0.00,726.000000,,2013-07-05 23:43:00,
2013-07-05 16:53:00,98.0,50.0,-100.00,WNW,284,5.0,21.0,20,0.00,,,0.00,726.000000,,2013-07-05 23:53:00,
2013-07-05 17:01:00,98.0,50.0,-100.00,WNW,284,5.0,21.0,20,0.00,,,0.00,726.000000,,2013-07-06 00:01:00,
2013-07-05 17:11:00,98.0,50.0,-100.00,WNW,284,5.0,21.0,20,0.00,,,0.00,726.000000,,2013-07-06 00:11:00,
2013-07-05 17:43:00,96.0,48.0,-100.00,NW,313,6.0,22.0,20,0.00,,,-99.99,601.000000,,2013-07-06 00:43:00,
2013-07-05 17:53:00,96.0,48.0,-100.00,NW,313,6.0,22.0,20,0.00,,,-99.99,601.000000,,2013-07-06 00:53:00,
2013-07-05 18:01:00,96.0,48.0,-100.00,NW,313,6.0,22.0,20,0.00,,,-99.99,601.000000,,2013-07-06 01:01:00,
2013-07-05 18:12:00,96.0,48.0,-100.00,NW,313,6.0,22.0,20,0.00,,,-99.99,601.000000,,2013-07-06 01:12:00,
2013-07-05 18:43:00,94.0,51.0,-100.00,NW,313,7.0,19.0,23,0.00,,,0.00,308.000000,,2013-07-06 01:43:00,
2013-07-05 18:53:00,94.0,51.0,-100.00,NW,313,7.0,19.0,23,0.00,,,0.00,308.000000,,2013-07-06 01:53:00,
2013-07-05 19:02:00,94.0,51.0,-100.00,NW,313,7.0,19.0,23,0.00,,,0.00,308.000000,,2013-07-06 02:02:00,
2013-07-05 19:11:00,94.0,51.0,-100.00,NW,313,7.0,19.0,23,0.00,,,0.00,308.000000,,2013-07-06 02:11:00,
2013-07-05 19:43:00,91.0,46.0,-100.00,South,182,9.0,20.0,21,0.00,,,0.00,197.000000,,2013-07-06 02:43:00,
2013-07-05 19:53:00,91.0,46.0,-100.00,South,182,9.0,20.0,21,0.00,,,0.00,197.000000,,2013-07-06 02:53:00,
2013-07-05 20:02:00,91.0,46.0,-100.00,South,182,9.0,20.0,21,0.00,,,0.00,197.000000,,2013-07-06 03:02:00,
2013-07-05 20:11:00,91.0,46.0,-100.00,South,182,9.0,20.0,21,0.00,,,0.00,197.000000,,2013-07-06 03:11:00,
2013-07-05 20:43:00,89.0,41.0,-100.00,West,268,6.0,19.0,19,0.00,,,0.00,31.000000,,2013-07-06 03:43:00,
2013-07-05 20:53:00,89.0,41.0,-100.00,West,268,6.0,19.0,19,0.00,,,0.00,31.000000,,2013-07-06 03:53:00,
2013-07-05 21:01:00,89.0,41.0,-100.00,West,268,6.0,19.0,19,0.00,,,0.00,31.000000,,2013-07-06 04:01:00,
2013-07-05 21:12:00,89.0,41.0,-100.00,West,268,6.0,19.0,19,0.00,,,0.00,31.000000,,2013-07-06 04:12:00,
2013-07-05 21:43:00,86.0,44.0,-100.00,WSW,238,7.0,16.0,23,0.00,,,0.00,1.000000,,2013-07-06 04:43:00,
2013-07-05 21:53:00,86.0,44.0,-100.00,WSW,238,7.0,16.0,23,0.00,,,0.00,1.000000,,2013-07-06 04:53:00,
2013-07-05 22:02:00,86.0,44.0,-100.00,WSW,238,7.0,16.0,23,0.00,,,0.00,1.000000,,2013-07-06 05:02:00,
2013-07-05 22:12:00,86.0,44.0,-100.00,WSW,238,7.0,16.0,23,0.00,,,0.00,1.000000,,2013-07-06 05:12:00,
2013-07-05 22:43:00,85.0,45.0,-100.00,SSW,203,5.0,13.0,25,0.00,,,0.00,0.000000,,2013-07-06 05:43:00,
2013-07-05 22:53:00,85.0,45.0,-100.00,SSW,203,5.0,13.0,25,0.00,,,0.00,0.000000,,2013-07-06 05:53:00,
2013-07-05 23:01:00,85.0,45.0,-100.00,SSW,203,5.0,13.0,25,0.00,,,0.00,0.000000,,2013-07-06 06:01:00,
2013-07-05 23:12:00,85.0,45.0,-100.00,SSW,203,5.0,13.0,25,0.00,,,0.00,0.000000,,2013-07-06 06:12:00,
2013-07-05 23:43:00,84.0,43.0,-100.00,WSW,242,5.0,10.0,24,0.00,,,0.00,0.000000,,2013-07-06 06:43:00,
2013-07-05 23:53:00,84.0,43.0,-100.00,WSW,242,5.0,10.0,24,0.00,,,0.00,0.000000,,2013-07-06 06:53:00,